TimeMST,TemperatureF,Dew PointF,Humidity,Sea Level PressureIn,VisibilityMPH,Wind Direction,Wind SpeedMPH,Gust SpeedMPH,PrecipitationIn,Events,Conditions,WindDirDegrees,DateUTC
12:53 AM,-2.0,-7.1,79,30.51,10.0,NNW,3.5,-,N/A,,Clear,340,2013-01-06 07:53:00
1:53 AM,-5.1,-9.9,80,30.51,10.0,NNW,3.5,-,N/A,,Clear,340,2013-01-06 08:53:00
2:53 AM,-2.0,-8.0,76,30.48,10.0,North,8.1,-,N/A,,Clear,350,2013-01-06 09:53:00
3:53 AM,-0.9,-8.0,72,30.45,10.0,NW,8.1,-,N/A,,Clear,320,2013-01-06 10:53:00
4:53 AM,-0.0,-6.0,76,30.47,10.0,NW,4.6,-,N/A,,Clear,320,2013-01-06 11:53:00
5:53 AM,-2.9,-8.0,79,30.48,10.0,Calm,Calm,-,N/A,,Clear,0,2013-01-06 12:53:00
6:53 AM,-2.0,-8.0,76,30.06,10.0,Calm,Calm,-,N/A,,Clear,0,2013-01-06 13:53:00
7:53 AM,-0.0,-6.0,76,30.05,10.0,Calm,Calm,-,N/A,,Clear,0,2013-01-06 14:53:00
8:53 AM,9.0,1.0,70,30.46,10.0,Calm,Calm,-,N/A,,Clear,0,2013-01-06 15:53:00
9:53 AM,21.9,1.9,42,30.41,10.0,Calm,Calm,-,N/A,,Clear,0,2013-01-06 16:53:00
10:53 AM,23.0,7.0,50,30.37,10.0,NNE,6.9,-,N/A,,Clear,20,2013-01-06 17:53:00
11:53 AM,27.0,8.1,45,30.31,10.0,North,5.8,-,N/A,,Clear,350,2013-01-06 18:53:00
12:53 PM,35.1,6.1,30,30.23,10.0,SW,23.0,28.8,N/A,,Clear,220,2013-01-06 19:53:00
1:53 PM,36.0,10.0,34,30.22,10.0,SW,12.7,18.4,N/A,,Clear,230,2013-01-06 20:53:00
2:53 PM,33.1,9.0,37,30.19,10.0,SSW,19.6,26.5,N/A,,Clear,210,2013-01-06 21:53:00
3:53 PM,30.0,7.0,38,30.19,10.0,SW,18.4,-,N/A,,Clear,230,2013-01-06 22:53:00
4:53 PM,26.1,7.0,44,30.22,10.0,SW,10.4,-,N/A,,Clear,230,2013-01-06 23:53:00
5:53 PM,24.1,5.0,44,30.22,10.0,Calm,Calm,-,N/A,,Clear,0,2013-01-07 00:53:00
6:53 PM,24.1,5.0,44,30.24,10.0,East,4.6,-,N/A,,Clear,90,2013-01-07 01:53:00
7:53 PM,21.9,5.0,48,30.22,10.0,South,8.1,-,N/A,,Clear,180,2013-01-07 02:53:00
8:53 PM,25.0,6.1,45,30.13,10.0,SW,23.0,-,N/A,,Clear,230,2013-01-07 03:53:00
9:53 PM,21.9,3.9,46,30.10,10.0,Variable,4.6,-,N/A,,Clear,0,2013-01-07 04:53:00
10:46 PM,26.6,5.0,40,29.98,10.0,WSW,18.4,24.2,N/A,,Clear,250,2013-01-07 05:46:00
10:53 PM,26.1,5.0,41,30.06,10.0,WSW,19.6,24.2,N/A,,Clear,250,2013-01-07 05:53:00
11:53 PM,25.0,5.0,43,30.07,10.0,WSW,15.0,-,N/A,,Clear,240,2013-01-07 06:53:00